createdAt,value
2019-02-14T00:00:30.821Z,16.80
2019-02-14T00:03:00.099Z,16.87
2019-02-14T00:05:29.705Z,16.27
2019-02-14T00:07:59.324Z,15.78
2019-02-14T00:10:28.614Z,18.45
2019-02-14T00:12:57.881Z,17.52
2019-02-14T00:15:27.174Z,17.10
2019-02-14T00:17:56.442Z,15.68
2019-02-14T00:20:25.739Z,15.88
2019-02-14T00:22:55.321Z,15.15
2019-02-14T00:25:24.940Z,13.25
2019-02-14T00:27:54.211Z,12.40
2019-02-14T00:30:23.493Z,14.90
2019-02-14T00:32:52.761Z,14.95
2019-02-14T00:35:25.206Z,17.02
2019-02-14T00:37:53.990Z,14.95
2019-02-14T00:40:23.267Z,12.65
2019-02-14T00:42:52.537Z,17.57
2019-02-14T00:45:21.810Z,14.35
2019-02-14T00:47:51.410Z,14.35
2019-02-14T00:50:21.012Z,16.12
2019-02-14T00:52:50.286Z,15.28
2019-02-14T00:55:19.565Z,14.20
2019-02-14T00:57:50.357Z,13.08
2019-02-14T01:00:19.637Z,14.40
2019-02-14T01:02:48.911Z,13.62
2019-02-14T01:05:18.200Z,15.70
2019-02-14T01:07:47.469Z,14.18
2019-02-14T01:10:16.991Z,17.05
2019-02-14T01:12:46.587Z,15.75
2019-02-14T01:15:17.813Z,14.75
2019-02-14T01:17:47.076Z,18.70
2019-02-14T01:20:16.614Z,14.87
2019-02-14T01:22:46.221Z,16.12
2019-02-14T01:25:15.505Z,19.95
2019-02-14T01:27:44.796Z,15.93
2019-02-14T01:30:14.429Z,16.60
2019-02-14T01:32:43.705Z,19.80
2019-02-14T01:35:13.290Z,14.83
2019-02-14T01:37:42.595Z,17.27
2019-02-14T01:40:11.873Z,16.93
2019-02-14T01:42:41.466Z,15.72
2019-02-14T01:45:11.872Z,17.37
2019-02-14T01:47:41.147Z,14.20
2019-02-14T01:50:11.260Z,17.52
2019-02-14T01:52:40.536Z,15.80
2019-02-14T01:55:10.107Z,15.78
2019-02-14T01:57:39.386Z,13.43
2019-02-14T02:00:14.936Z,12.63
2019-02-14T02:02:44.203Z,16.35
2019-02-14T02:05:14.548Z,15.25
2019-02-14T02:07:44.088Z,14.65
2019-02-14T02:10:13.618Z,17.55
2019-02-14T02:12:42.886Z,14.78
2019-02-14T02:15:14.373Z,15.75
2019-02-14T02:17:43.645Z,15.10
2019-02-14T02:20:12.920Z,14.53
2019-02-14T02:22:42.185Z,14.80
2019-02-14T02:25:12.245Z,16.50
2019-02-14T02:27:41.522Z,17.55
2019-02-14T02:30:13.770Z,15.10
2019-02-14T02:32:43.437Z,17.17
2019-02-14T02:35:13.050Z,17.70
2019-02-14T02:37:42.320Z,17.17
2019-02-14T02:40:12.057Z,15.63
2019-02-14T02:42:41.333Z,14.43
2019-02-14T02:45:12.242Z,18.82
2019-02-14T02:47:41.520Z,14.47
2019-02-14T02:50:12.234Z,14.83
2019-02-14T02:52:41.861Z,14.38
2019-02-14T02:55:11.197Z,16.95
2019-02-14T02:57:40.486Z,13.72
2019-02-14T03:00:17.731Z,17.80
2019-02-14T03:02:47.008Z,18.80
2019-02-14T03:05:16.281Z,14.90
2019-02-14T03:07:45.556Z,14.73
2019-02-14T03:10:14.828Z,14.13
2019-02-14T03:12:45.171Z,16.20
2019-02-14T03:15:15.278Z,14.30
2019-02-14T03:17:44.564Z,16.00
2019-02-14T03:20:13.998Z,15.03
2019-02-14T03:22:43.283Z,13.60
2019-02-14T03:25:17.921Z,12.78
2019-02-14T03:27:47.569Z,15.05
2019-02-14T03:30:17.144Z,22.80
2019-02-14T03:32:46.730Z,17.02
2019-02-14T03:35:16.005Z,15.93
2019-02-14T03:37:45.293Z,14.75
2019-02-14T03:40:15.113Z,16.15
2019-02-14T03:42:44.644Z,13.78
2019-02-14T03:45:21.108Z,13.70
2019-02-14T03:47:50.390Z,14.15
2019-02-14T03:50:19.659Z,18.80
2019-02-14T03:52:49.181Z,13.83
2019-02-14T03:55:18.501Z,14.13
2019-02-14T03:57:47.794Z,18.40
2019-02-14T04:00:17.906Z,15.18
2019-02-14T04:02:47.228Z,15.23
2019-02-14T04:05:16.755Z,12.43
2019-02-14T04:07:46.029Z,16.50
2019-02-14T04:10:15.505Z,18.77
2019-02-14T04:12:44.827Z,15.38
2019-02-14T04:15:18.088Z,18.70
2019-02-14T04:17:47.359Z,15.43
2019-02-14T04:20:16.637Z,14.80
2019-02-14T04:22:45.916Z,13.10
2019-02-14T04:25:15.210Z,13.05
2019-02-14T04:27:44.474Z,15.80
2019-02-14T04:30:14.586Z,10.38
2019-02-14T04:32:43.858Z,12.13
2019-02-14T04:35:13.138Z,15.18
2019-02-14T04:37:42.423Z,12.73
2019-02-14T04:40:13.021Z,14.40
2019-02-14T04:42:42.718Z,21.45
2019-02-14T04:45:13.040Z,12.88
2019-02-14T04:47:43.061Z,19.17
2019-02-14T04:50:12.406Z,13.83
2019-02-14T04:52:41.676Z,13.98
2019-02-14T04:55:12.253Z,10.55
2019-02-14T04:57:41.529Z,13.30
2019-02-14T05:00:13.509Z,11.83
2019-02-14T05:02:42.800Z,17.30
2019-02-14T05:05:12.058Z,10.90
2019-02-14T05:07:41.586Z,11.53
2019-02-14T05:10:11.797Z,13.32
2019-02-14T05:12:41.086Z,13.00
2019-02-14T05:15:11.024Z,11.63
2019-02-14T05:17:40.610Z,11.78
2019-02-14T05:20:13.076Z,12.07
2019-02-14T05:22:42.370Z,11.75
2019-02-14T05:25:11.637Z,11.12
2019-02-14T05:27:40.918Z,10.65
2019-02-14T05:30:17.885Z,10.48
2019-02-14T05:32:47.161Z,13.98
2019-02-14T05:35:16.425Z,15.58
2019-02-14T05:37:45.881Z,13.22
2019-02-14T05:40:15.469Z,11.57
2019-02-14T05:42:44.752Z,12.60
2019-02-14T05:45:14.894Z,10.63
2019-02-14T05:47:44.169Z,13.22
2019-02-14T05:50:14.380Z,10.80
2019-02-14T05:52:43.665Z,10.50
2019-02-14T05:55:13.116Z,11.38
2019-02-14T05:57:42.391Z,13.00
2019-02-14T06:00:16.473Z,12.10
2019-02-14T06:02:46.043Z,11.83
2019-02-14T06:05:15.384Z,15.25
2019-02-14T06:07:44.674Z,13.45
2019-02-14T06:10:14.182Z,13.38
2019-02-14T06:12:43.465Z,12.37
2019-02-14T06:15:13.484Z,12.80
2019-02-14T06:17:42.754Z,15.00
2019-02-14T06:20:12.953Z,9.00
2019-02-14T06:22:42.238Z,11.83
2019-02-14T06:25:12.646Z,10.05
2019-02-14T06:27:41.921Z,9.45
2019-02-14T06:30:15.521Z,11.18
2019-02-14T06:32:44.805Z,12.18
2019-02-14T06:35:14.076Z,10.25
2019-02-14T06:37:43.362Z,10.08
2019-02-14T06:40:15.485Z,14.58
2019-02-14T06:42:44.777Z,9.75
2019-02-14T06:45:17.675Z,11.75
2019-02-14T06:47:46.967Z,10.78
2019-02-14T06:50:16.231Z,8.83
2019-02-14T06:52:45.497Z,11.48
2019-02-14T06:55:14.772Z,11.70
2019-02-14T06:57:44.054Z,10.13
2019-02-14T07:00:17.782Z,11.88
2019-02-14T07:02:47.191Z,9.65
2019-02-14T07:05:16.790Z,10.38
2019-02-14T07:07:46.066Z,10.40
2019-02-14T07:10:15.337Z,13.25
2019-02-14T07:12:44.620Z,12.53
2019-02-14T07:15:14.653Z,11.65
2019-02-14T07:17:43.905Z,8.63
2019-02-14T07:20:15.227Z,11.65
2019-02-14T07:22:44.763Z,9.58
2019-02-14T07:25:14.037Z,9.10
2019-02-14T07:27:43.314Z,8.73
2019-02-14T07:30:20.905Z,10.40
2019-02-14T07:32:50.165Z,8.95
2019-02-14T07:35:19.617Z,8.28
2019-02-14T07:37:48.887Z,14.53
2019-02-14T07:40:18.565Z,9.40
2019-02-14T07:42:47.838Z,7.03
2019-02-14T07:45:17.966Z,10.25
2019-02-14T07:47:47.305Z,6.50
2019-02-14T07:50:16.581Z,11.12
2019-02-14T07:52:45.883Z,7.60
2019-02-14T07:55:15.622Z,10.98
2019-02-14T07:57:44.944Z,13.25
2019-02-14T08:00:16.743Z,7.10
2019-02-14T08:02:46.020Z,10.78
2019-02-14T08:05:15.303Z,11.50
2019-02-14T08:07:44.574Z,8.18
2019-02-14T08:10:17.882Z,9.85
2019-02-14T08:12:47.195Z,13.58
2019-02-14T08:15:16.512Z,8.50
2019-02-14T08:17:45.780Z,6.90
2019-02-14T08:20:21.774Z,10.35
2019-02-14T08:22:51.037Z,7.12
2019-02-14T08:25:20.312Z,7.47
2019-02-14T08:27:49.585Z,6.85
2019-02-14T08:30:20.209Z,5.62
2019-02-14T08:32:49.474Z,7.62
2019-02-14T08:35:18.750Z,6.22
2019-02-14T08:37:48.249Z,8.30
2019-02-14T08:40:25.645Z,6.37
2019-02-14T08:42:54.988Z,6.85
2019-02-14T08:45:24.272Z,7.30
2019-02-14T08:47:53.528Z,7.53
2019-02-14T08:50:23.055Z,9.35
2019-02-14T08:52:52.313Z,6.95
2019-02-14T08:55:21.593Z,6.62
2019-02-14T08:57:50.873Z,7.65
2019-02-14T09:00:20.150Z,5.60
2019-02-14T09:02:49.661Z,8.08
2019-02-14T09:05:19.271Z,4.85
2019-02-14T09:07:54.779Z,11.45
2019-02-14T09:10:19.813Z,5.60
2019-02-14T09:12:49.324Z,6.00
2019-02-14T09:15:18.605Z,4.72
2019-02-14T09:17:48.126Z,5.85
2019-02-14T09:20:20.493Z,6.75
2019-02-14T09:22:50.009Z,6.17
2019-02-14T09:25:19.298Z,5.95
2019-02-14T09:27:48.576Z,5.97
2019-02-14T09:30:17.869Z,4.10
2019-02-14T09:32:47.451Z,7.87
2019-02-14T09:35:17.027Z,4.67
2019-02-14T09:37:46.631Z,4.60
2019-02-14T09:40:18.395Z,5.67
2019-02-14T09:42:47.681Z,7.75
2019-02-14T09:45:17.643Z,5.70
2019-02-14T09:47:46.916Z,5.63
2019-02-14T09:50:16.193Z,6.80
2019-02-14T09:52:45.483Z,6.23
2019-02-14T09:55:14.926Z,5.80
2019-02-14T09:57:44.233Z,3.40
2019-02-14T10:00:19.503Z,5.97
2019-02-14T10:02:48.773Z,5.23
2019-02-14T10:05:18.361Z,4.50
2019-02-14T10:07:47.632Z,4.20
2019-02-14T10:10:26.111Z,6.50
2019-02-14T10:12:55.395Z,14.40
2019-02-14T10:15:24.682Z,6.67
2019-02-14T10:17:53.949Z,7.17
2019-02-14T10:20:23.240Z,4.70
2019-02-14T10:22:52.522Z,4.77
2019-02-14T10:25:21.810Z,4.57
2019-02-14T10:27:51.084Z,3.50
2019-02-14T10:30:21.793Z,5.10
2019-02-14T10:32:51.160Z,3.87
2019-02-14T10:35:20.446Z,4.63
2019-02-14T10:37:49.731Z,4.10
2019-02-14T10:40:19.327Z,5.10
2019-02-14T10:42:48.601Z,5.07
2019-02-14T10:45:19.621Z,7.30
2019-02-14T10:47:48.898Z,3.80
2019-02-14T10:50:18.481Z,5.37
2019-02-14T10:52:48.127Z,2.87
2019-02-14T10:55:17.511Z,3.80
2019-02-14T10:57:46.781Z,4.30
2019-02-14T11:00:24.534Z,3.50
2019-02-14T11:02:54.085Z,4.20
2019-02-14T11:05:23.424Z,3.70
2019-02-14T11:07:52.735Z,5.17
2019-02-14T11:10:22.072Z,4.77
2019-02-14T11:12:51.358Z,3.80
2019-02-14T11:15:22.951Z,8.27
2019-02-14T11:17:53.696Z,5.00
2019-02-14T11:20:22.973Z,4.33
2019-02-14T11:22:52.481Z,4.23
2019-02-14T11:25:24.893Z,3.57
2019-02-14T11:27:54.533Z,3.53
2019-02-14T11:30:23.829Z,2.40
2019-02-14T11:32:53.123Z,2.37
2019-02-14T11:35:22.409Z,2.77
2019-02-14T11:37:51.979Z,4.50
2019-02-14T11:40:21.269Z,3.73
2019-02-14T11:42:50.892Z,5.90
2019-02-14T11:45:21.614Z,4.27
2019-02-14T11:47:50.922Z,3.53
2019-02-14T11:50:20.198Z,2.70
2019-02-14T11:52:49.477Z,2.20
2019-02-14T11:55:19.057Z,2.00
2019-02-14T11:57:48.657Z,3.53
2019-02-14T12:00:27.990Z,1.80
2019-02-14T12:02:57.302Z,5.63
2019-02-14T12:05:26.895Z,4.47
2019-02-14T12:07:57.528Z,2.43
2019-02-14T12:10:27.865Z,3.43
2019-02-14T12:12:57.148Z,2.70
2019-02-14T12:15:26.429Z,2.93
2019-02-14T12:17:55.718Z,2.83
2019-02-14T12:20:24.986Z,2.33
2019-02-14T12:22:54.551Z,3.33
2019-02-14T12:25:29.230Z,2.60
2019-02-14T12:27:58.521Z,2.80
2019-02-14T12:30:28.191Z,6.07
2019-02-14T12:32:57.795Z,1.93
2019-02-14T12:35:27.069Z,3.83
2019-02-14T12:37:56.362Z,2.50
2019-02-14T12:40:25.629Z,2.70
2019-02-14T12:42:54.929Z,2.80
2019-02-14T12:45:26.300Z,3.20
2019-02-14T12:47:56.619Z,2.60
2019-02-14T12:50:26.857Z,3.23
2019-02-14T12:52:56.143Z,3.50
2019-02-14T12:55:25.424Z,3.60
2019-02-14T12:57:54.709Z,4.37
2019-02-14T13:00:24.560Z,3.77
2019-02-14T13:02:53.837Z,3.80
2019-02-14T13:05:23.119Z,2.47
2019-02-14T13:07:52.397Z,3.77
2019-02-14T13:10:21.681Z,2.50
2019-02-14T13:12:50.974Z,2.23
2019-02-14T13:15:26.014Z,2.20
2019-02-14T13:17:55.293Z,2.07
2019-02-14T13:20:24.570Z,5.70
2019-02-14T13:22:54.934Z,8.53
2019-02-14T13:25:24.490Z,1.67
2019-02-14T13:27:54.087Z,2.47
2019-02-14T13:30:25.326Z,2.90
2019-02-14T13:32:54.677Z,1.37
2019-02-14T13:35:23.937Z,3.83
2019-02-14T13:37:53.259Z,2.70
2019-02-14T13:40:22.586Z,2.47
2019-02-14T13:42:51.861Z,2.23
2019-02-14T13:45:23.089Z,3.03
2019-02-14T13:47:52.685Z,1.47
2019-02-14T13:50:22.017Z,2.23
2019-02-14T13:52:51.597Z,2.27
2019-02-14T13:55:20.885Z,2.13
2019-02-14T13:57:50.509Z,1.30
2019-02-14T14:00:23.196Z,6.27
2019-02-14T14:02:52.793Z,1.93
2019-02-14T14:05:22.409Z,1.40
2019-02-14T14:07:52.013Z,2.17
2019-02-14T14:10:21.294Z,1.80
2019-02-14T14:12:50.818Z,1.10
2019-02-14T14:15:20.433Z,1.40
2019-02-14T14:17:49.710Z,1.20
2019-02-14T14:20:19.345Z,1.83
2019-02-14T14:22:49.688Z,2.30
2019-02-14T14:25:18.969Z,2.83
2019-02-14T14:27:48.249Z,4.73
2019-02-14T14:30:17.775Z,3.80
2019-02-14T14:32:47.474Z,5.37
2019-02-14T14:35:16.749Z,3.00
2019-02-14T14:37:46.082Z,2.37
2019-02-14T14:40:17.013Z,1.30
2019-02-14T14:42:51.074Z,2.77
2019-02-14T14:45:34.495Z,2.23
2019-02-14T14:48:04.087Z,2.67
2019-02-14T14:50:33.678Z,1.27
2019-02-14T14:53:02.966Z,1.63
2019-02-14T14:55:32.244Z,1.70
2019-02-14T14:58:01.530Z,1.23
2019-02-14T15:00:30.800Z,2.17
2019-02-14T15:03:00.085Z,4.27
2019-02-14T15:05:29.366Z,1.73
2019-02-14T15:07:58.645Z,1.27
2019-02-14T15:10:27.922Z,1.20
2019-02-14T15:12:57.215Z,2.20
2019-02-14T15:15:26.550Z,2.60
2019-02-14T15:17:56.200Z,1.37
2019-02-14T15:20:25.473Z,2.13
2019-02-14T15:22:56.291Z,1.77
2019-02-14T15:25:25.909Z,1.33
2019-02-14T15:27:55.437Z,1.20
2019-02-14T15:30:24.711Z,2.13
2019-02-14T15:32:55.172Z,2.50
2019-02-14T15:35:24.782Z,43.67
2019-02-14T15:37:54.390Z,2.60
2019-02-14T15:40:23.674Z,2.50
2019-02-14T15:42:52.982Z,1.77
2019-02-14T15:45:22.298Z,4.20
2019-02-14T15:47:51.578Z,1.50
2019-02-14T15:50:20.865Z,2.30
2019-02-14T15:52:52.213Z,2.20
2019-02-14T15:55:21.983Z,3.43
2019-02-14T15:57:52.410Z,3.23
2019-02-14T16:00:21.761Z,2.37
2019-02-14T16:02:52.542Z,2.83
2019-02-14T16:05:22.326Z,1.50
2019-02-14T16:07:51.929Z,4.80
2019-02-14T16:10:21.222Z,2.60
2019-02-14T16:12:50.747Z,2.40
2019-02-14T16:15:20.027Z,2.30
2019-02-14T16:17:49.293Z,4.70
2019-02-14T16:20:19.894Z,3.20
2019-02-14T16:22:49.294Z,2.40
2019-02-14T16:25:18.587Z,2.20
2019-02-14T16:27:48.664Z,2.40
2019-02-14T16:30:18.882Z,3.77
2019-02-14T16:32:49.349Z,4.70
2019-02-14T16:35:18.638Z,3.23
2019-02-14T16:37:50.059Z,3.60
2019-02-14T16:40:27.178Z,5.10
2019-02-14T16:42:49.857Z,2.43
2019-02-14T16:45:19.145Z,4.63
2019-02-14T16:47:48.412Z,8.00
2019-02-14T16:50:17.697Z,3.50
2019-02-14T16:52:47.016Z,3.67
2019-02-14T16:55:16.305Z,2.87
2019-02-14T16:57:45.837Z,6.60
2019-02-14T17:00:15.447Z,2.50
2019-02-14T17:02:44.722Z,5.80
2019-02-14T17:05:14.007Z,4.83
2019-02-14T17:07:43.280Z,2.47
2019-02-14T17:10:12.565Z,1.90
2019-02-14T17:12:41.840Z,2.40
2019-02-14T17:15:11.286Z,4.00
2019-02-14T17:17:40.590Z,7.40
2019-02-14T17:20:11.174Z,7.00
2019-02-14T17:22:40.470Z,10.60
2019-02-14T17:25:09.811Z,7.50
2019-02-14T17:27:39.072Z,7.13
2019-02-14T17:30:09.817Z,5.30
2019-02-14T17:32:39.137Z,5.03
2019-02-14T17:35:09.490Z,2.97
2019-02-14T17:37:38.782Z,6.67
2019-02-14T17:40:09.509Z,4.80
2019-02-14T17:42:39.848Z,4.53
2019-02-14T17:45:10.456Z,3.70
2019-02-14T17:47:39.720Z,4.45
2019-02-14T17:50:09.379Z,3.37
2019-02-14T17:52:38.657Z,2.70
2019-02-14T17:55:10.103Z,5.17
2019-02-14T17:57:39.368Z,2.30
2019-02-14T18:00:13.710Z,2.40
2019-02-14T18:02:43.321Z,3.27
2019-02-14T18:05:12.937Z,3.90
2019-02-14T18:07:42.544Z,3.33
2019-02-14T18:10:12.961Z,4.03
2019-02-14T18:12:42.578Z,5.35
2019-02-14T18:15:13.802Z,3.87
2019-02-14T18:17:44.689Z,3.10
2019-02-14T18:20:13.981Z,3.20
2019-02-14T18:22:43.252Z,5.05
2019-02-14T18:25:13.012Z,3.42
2019-02-14T18:27:42.281Z,5.10
2019-02-14T18:30:12.410Z,3.22
2019-02-14T18:32:41.686Z,2.72
2019-02-14T18:35:12.204Z,4.03
2019-02-14T18:37:41.730Z,4.45
2019-02-14T18:40:11.913Z,5.58
2019-02-14T18:42:46.384Z,4.75
2019-02-14T18:45:15.669Z,6.22
2019-02-14T18:47:44.942Z,3.80
2019-02-14T18:50:14.812Z,5.55
2019-02-14T18:52:44.083Z,3.42
2019-02-14T18:55:13.793Z,4.90
2019-02-14T18:57:43.066Z,4.97
2019-02-14T19:00:16.865Z,5.83
2019-02-14T19:02:46.134Z,3.58
2019-02-14T19:05:15.421Z,5.62
2019-02-14T19:07:44.689Z,4.83
2019-02-14T19:10:18.436Z,6.62
2019-02-14T19:12:48.123Z,8.85
2019-02-14T19:15:18.359Z,6.03
2019-02-14T19:17:47.608Z,5.92
2019-02-14T19:20:16.898Z,6.08
2019-02-14T19:22:46.180Z,4.70
2019-02-14T19:25:15.452Z,4.08
2019-02-14T19:27:44.994Z,4.28
2019-02-14T19:30:14.701Z,3.35
2019-02-14T19:32:44.302Z,4.87
2019-02-14T19:35:22.813Z,5.17
2019-02-14T19:37:45.886Z,5.70
2019-02-14T19:40:15.146Z,4.22
2019-02-14T19:42:44.461Z,4.55
2019-02-14T19:45:14.065Z,5.90
2019-02-14T19:47:43.652Z,4.55
2019-02-14T19:50:14.466Z,5.15
2019-02-14T19:52:43.745Z,5.78
2019-02-14T19:55:13.014Z,5.30
2019-02-14T19:57:42.291Z,6.42
2019-02-14T20:00:14.968Z,4.47
2019-02-14T20:02:44.259Z,4.30
2019-02-14T20:05:13.509Z,4.55
2019-02-14T20:07:42.799Z,4.78
2019-02-14T20:10:16.061Z,8.48
2019-02-14T20:12:45.343Z,5.05
2019-02-14T20:15:17.781Z,4.60
2019-02-14T20:17:47.358Z,3.50
2019-02-14T20:20:16.629Z,5.72
2019-02-14T20:22:45.899Z,8.45
2019-02-14T20:25:18.269Z,8.70
2019-02-14T20:27:49.899Z,5.47
2019-02-14T20:30:18.761Z,3.45
2019-02-14T20:32:48.040Z,6.50
2019-02-14T20:35:17.563Z,3.70
2019-02-14T20:37:46.910Z,3.62
2019-02-14T20:40:16.177Z,5.70
2019-02-14T20:42:45.778Z,8.05
2019-02-14T20:45:15.530Z,4.55
2019-02-14T20:47:44.823Z,4.40
2019-02-14T20:50:15.329Z,5.08
2019-02-14T20:52:44.686Z,4.90
2019-02-14T20:55:23.760Z,4.45
2019-02-14T20:57:53.033Z,3.80
2019-02-14T21:00:26.642Z,7.05
2019-02-14T21:02:55.993Z,3.52
2019-02-14T21:05:25.257Z,3.95
2019-02-14T21:07:54.534Z,4.47
2019-02-14T21:10:23.864Z,6.72
2019-02-14T21:12:53.325Z,12.65
2019-02-14T21:15:22.653Z,4.47
2019-02-14T21:17:51.944Z,5.53
2019-02-14T21:20:21.204Z,3.92
2019-02-14T21:22:50.778Z,4.05
2019-02-14T21:25:22.946Z,3.98
2019-02-14T21:27:51.350Z,3.67
2019-02-14T21:30:20.989Z,5.37
2019-02-14T21:32:50.280Z,7.28
2019-02-14T21:35:20.593Z,4.25
2019-02-14T21:37:49.936Z,3.83
2019-02-14T21:40:19.841Z,5.83
2019-02-14T21:42:49.146Z,5.15
2019-02-14T21:45:18.596Z,8.73
2019-02-14T21:47:48.185Z,3.47
2019-02-14T21:50:17.458Z,3.27
2019-02-14T21:52:46.953Z,5.25
2019-02-14T21:55:16.813Z,5.10
2019-02-14T21:57:46.354Z,4.45
2019-02-14T22:00:18.425Z,5.87
2019-02-14T22:02:47.836Z,6.60
2019-02-14T22:05:24.009Z,6.62
2019-02-14T22:07:48.683Z,5.33
2019-02-14T22:10:17.949Z,5.75
2019-02-14T22:12:47.299Z,6.33
2019-02-14T22:15:22.315Z,7.30
2019-02-14T22:17:51.582Z,5.87
2019-02-14T22:20:20.836Z,4.72
2019-02-14T22:22:50.182Z,4.50
2019-02-14T22:25:19.449Z,7.08
2019-02-14T22:27:48.725Z,14.85
2019-02-14T22:30:18.465Z,4.60
2019-02-14T22:32:47.759Z,5.37
2019-02-14T22:35:17.021Z,5.40
2019-02-14T22:37:46.294Z,5.35
2019-02-14T22:40:15.565Z,8.45
2019-02-14T22:42:47.612Z,6.37
2019-02-14T22:45:16.087Z,4.85
2019-02-14T22:47:45.528Z,6.95
2019-02-14T22:50:14.958Z,5.22
2019-02-14T22:52:44.563Z,4.78
2019-02-14T22:55:14.458Z,5.35
2019-02-14T22:57:43.736Z,5.35
2019-02-14T23:00:26.725Z,3.92
2019-02-14T23:02:57.047Z,4.87
2019-02-14T23:05:26.655Z,6.00
2019-02-14T23:07:56.223Z,5.10
2019-02-14T23:10:25.499Z,5.42
2019-02-14T23:12:55.961Z,5.67
2019-02-14T23:15:25.505Z,4.87
2019-02-14T23:17:54.781Z,5.85
2019-02-14T23:20:24.049Z,4.90
2019-02-14T23:22:53.560Z,10.68
2019-02-14T23:25:23.903Z,4.85
2019-02-14T23:27:53.179Z,4.90
2019-02-14T23:30:22.502Z,6.20
2019-02-14T23:32:51.784Z,4.08
2019-02-14T23:35:21.296Z,7.03
2019-02-14T23:37:50.584Z,4.97
2019-02-14T23:40:19.850Z,8.18
2019-02-14T23:42:49.148Z,4.75
2019-02-14T23:45:18.427Z,8.68
2019-02-14T23:47:48.037Z,6.30
2019-02-14T23:50:17.302Z,7.50
2019-02-14T23:52:46.579Z,4.92
2019-02-14T23:55:15.858Z,3.80
2019-02-14T23:57:45.416Z,4.62
